createdAt,value
2017-05-22T01:27:32.185Z,12.42
2017-05-22T01:28:12.737Z,12.42
2017-05-22T01:28:53.328Z,12.42
2017-05-22T01:29:33.824Z,12.42
2017-05-22T01:30:14.363Z,12.42
2017-05-22T01:30:54.914Z,12.42
2017-05-22T01:31:35.438Z,12.42
2017-05-22T01:32:15.988Z,12.42
2017-05-22T01:32:56.553Z,12.42
2017-05-22T01:33:37.055Z,12.42
2017-05-22T01:34:17.572Z,12.42
2017-05-22T01:34:58.113Z,12.42
2017-05-22T01:35:38.641Z,12.42
2017-05-22T01:36:19.188Z,12.42
2017-05-22T01:36:59.740Z,12.42
2017-05-22T01:37:40.276Z,12.42
2017-05-22T01:38:20.806Z,12.42
2017-05-22T01:39:01.336Z,12.42
2017-05-22T01:39:41.872Z,12.42
2017-05-22T01:40:22.404Z,12.42
2017-05-22T01:41:02.947Z,12.42
2017-05-22T01:41:43.502Z,12.42
2017-05-22T01:42:24.006Z,12.42
2017-05-22T01:43:04.524Z,12.42
2017-05-22T01:43:45.072Z,12.42
2017-05-22T01:44:25.623Z,12.42
2017-05-22T01:45:06.158Z,12.42
2017-05-22T01:45:46.699Z,12.42
2017-05-22T01:46:27.226Z,12.42
2017-05-22T01:47:07.795Z,12.42
2017-05-22T01:47:48.343Z,12.42
2017-05-22T01:48:28.863Z,12.42
2017-05-22T01:49:09.396Z,12.42
2017-05-22T01:49:49.961Z,12.42
2017-05-22T01:50:30.508Z,12.42
2017-05-22T01:51:11.045Z,12.42
2017-05-22T01:51:51.582Z,12.42
2017-05-22T01:52:32.125Z,12.42
2017-05-22T01:53:12.677Z,12.42
2017-05-22T01:53:53.232Z,12.42
2017-05-22T01:54:33.746Z,12.42
2017-05-22T01:55:14.343Z,12.42
2017-05-22T01:55:54.845Z,12.42
2017-05-22T01:56:35.352Z,12.42
2017-05-22T01:57:15.895Z,12.42
2017-05-22T01:57:56.409Z,12.42
2017-05-22T01:58:36.980Z,12.42
2017-05-22T01:59:17.531Z,12.42
2017-05-22T01:59:59.084Z,12.42
2017-05-22T02:00:39.588Z,12.42
2017-05-22T02:01:20.135Z,12.42
2017-05-22T02:02:00.647Z,12.42
2017-05-22T02:02:41.169Z,12.42
2017-05-22T02:03:21.679Z,12.42
2017-05-22T02:04:02.238Z,12.42
2017-05-22T02:04:42.751Z,12.42
2017-05-22T02:05:23.303Z,12.42
2017-05-22T02:06:03.846Z,12.42
2017-05-22T02:06:44.407Z,12.42
2017-05-22T02:07:24.937Z,12.42
2017-05-22T02:08:05.444Z,12.42
2017-05-22T02:08:45.979Z,12.42
2017-05-22T02:09:26.519Z,12.42
2017-05-22T02:10:07.046Z,12.42
2017-05-22T02:10:47.569Z,12.42
2017-05-22T02:11:28.138Z,12.42
2017-05-22T02:12:08.657Z,12.42
2017-05-22T02:12:49.261Z,12.42
2017-05-22T02:13:29.807Z,12.42
2017-05-22T02:14:10.357Z,12.42
2017-05-22T02:14:50.872Z,12.42
2017-05-22T02:15:31.386Z,12.42
2017-05-22T02:16:11.935Z,12.42
2017-05-22T02:16:52.478Z,12.42
2017-05-22T02:17:33.019Z,12.42
2017-05-22T02:18:13.557Z,12.42
2017-05-22T02:18:54.099Z,12.42
2017-05-22T02:19:34.652Z,12.42
2017-05-22T02:20:15.176Z,12.42
2017-05-22T02:20:56.702Z,12.42
2017-05-22T02:21:37.238Z,12.42
2017-05-22T02:22:19.769Z,12.42
2017-05-22T02:23:14.927Z,12.42
2017-05-22T02:23:56.441Z,12.42
2017-05-22T02:24:36.947Z,12.42
2017-05-22T02:25:17.488Z,12.42
2017-05-22T02:26:00.027Z,12.42
2017-05-22T02:26:45.304Z,12.42
2017-05-22T02:27:25.804Z,12.42
2017-05-22T02:28:18.145Z,12.42
2017-05-22T02:28:58.636Z,12.42
2017-05-22T02:29:39.170Z,12.42
2017-05-22T02:30:19.680Z,12.42
2017-05-22T02:31:00.231Z,12.42
2017-05-22T02:31:40.760Z,12.42
2017-05-22T02:32:22.276Z,12.42
2017-05-22T02:33:17.614Z,12.42
2017-05-22T02:34:03.120Z,12.42
2017-05-22T02:34:43.675Z,12.42
2017-05-22T02:35:29.134Z,12.42
2017-05-22T02:36:14.625Z,12.42
2017-05-22T02:36:55.134Z,12.42
2017-05-22T02:37:36.680Z,12.42
2017-05-22T02:38:23.929Z,12.42
2017-05-22T02:39:04.465Z,12.42
2017-05-22T02:39:44.975Z,12.42
2017-05-22T02:40:27.506Z,12.42
2017-05-22T03:01:26.644Z,12.2
2017-05-22T03:02:07.193Z,12.2
2017-05-22T03:02:47.732Z,12.2
2017-05-22T03:03:28.274Z,12.2
2017-05-22T03:04:08.809Z,12.2
2017-05-22T03:04:49.326Z,12.2
2017-05-22T03:05:29.861Z,12.2
2017-05-22T03:06:10.407Z,12.2
2017-05-22T03:06:50.930Z,12.2
2017-05-22T03:07:31.477Z,12.2
2017-05-22T03:08:12.009Z,12.2
2017-05-22T03:08:52.527Z,12.2
2017-05-22T03:09:33.044Z,12.2
2017-05-22T03:10:13.584Z,12.2
2017-05-22T03:10:54.145Z,12.2
2017-05-22T03:11:34.686Z,12.2
2017-05-22T03:12:15.249Z,12.2
2017-05-22T03:12:55.777Z,12.2
2017-05-22T03:13:36.310Z,12.2
2017-05-22T03:14:16.943Z,12.2
2017-05-22T03:14:57.376Z,12.2
2017-05-22T03:15:37.884Z,12.2
2017-05-22T03:16:18.432Z,12.2
2017-05-22T03:16:58.973Z,12.2
2017-05-22T03:17:39.488Z,12.2
2017-05-22T03:18:20.033Z,12.2
2017-05-22T03:19:00.590Z,12.2
2017-05-22T03:19:41.131Z,12.2
2017-05-22T03:20:21.640Z,12.2
2017-05-22T03:21:02.152Z,12.2
2017-05-22T03:21:42.750Z,12.2
2017-05-22T03:22:23.210Z,12.2
2017-05-22T03:23:03.725Z,12.2
2017-05-22T03:23:44.236Z,12.2
2017-05-22T03:24:24.778Z,12.2
2017-05-22T03:25:05.322Z,12.2
2017-05-22T03:25:45.879Z,12.2
2017-05-22T03:26:26.407Z,12.2
2017-05-22T03:27:06.942Z,12.2
2017-05-22T03:27:47.461Z,12.2
2017-05-22T03:28:27.985Z,12.2
2017-05-22T03:29:08.528Z,12.2
2017-05-22T03:29:49.023Z,12.2
2017-05-22T03:30:29.546Z,12.2
2017-05-22T03:31:10.080Z,12.2
2017-05-22T03:31:50.624Z,12.2
2017-05-22T03:32:31.138Z,12.2
2017-05-22T03:33:12.683Z,12.2
2017-05-22T03:33:53.238Z,12.2
2017-05-22T03:34:33.751Z,12.2
2017-05-22T03:35:14.278Z,12.2
2017-05-22T03:35:54.809Z,12.2
2017-05-22T03:36:35.413Z,12.2
2017-05-22T03:37:15.923Z,12.2
2017-05-22T03:37:56.469Z,12.2
2017-05-22T03:38:37.013Z,12.2
2017-05-22T03:39:17.555Z,12.2
2017-05-22T03:39:58.086Z,12.2
2017-05-22T03:40:38.635Z,12.2
2017-05-22T03:41:19.153Z,12.2
2017-05-22T03:41:59.688Z,12.2
2017-05-22T03:42:40.235Z,12.2
2017-05-22T03:43:20.771Z,12.2
2017-05-22T03:44:01.317Z,12.2
2017-05-22T03:44:41.856Z,12.2
2017-05-22T03:45:22.406Z,12.2
2017-05-22T03:46:02.906Z,12.2
2017-05-22T03:46:43.447Z,12.2
2017-05-22T03:47:23.972Z,12.2
2017-05-22T03:48:04.500Z,12.2
2017-05-22T03:48:46.026Z,12.2
2017-05-22T03:49:26.566Z,12.2
2017-05-22T03:50:07.096Z,12.2
2017-05-22T03:50:47.616Z,12.2
2017-05-22T03:51:28.131Z,12.2
2017-05-22T03:52:08.656Z,12.2
2017-05-22T03:52:49.221Z,12.2
2017-05-22T03:53:29.750Z,12.2
2017-05-22T03:54:11.270Z,12.2
2017-05-22T03:54:51.782Z,12.2
2017-05-22T03:55:32.332Z,12.2
2017-05-22T03:56:12.849Z,12.2
2017-05-22T03:56:53.381Z,12.2
2017-05-22T03:57:33.923Z,12.2
2017-05-22T03:58:14.476Z,12.2
2017-05-22T03:58:54.987Z,12.2
2017-05-22T03:59:35.506Z,12.2
2017-05-22T04:00:16.040Z,12.2
2017-05-22T04:00:57.559Z,12.2
2017-05-22T04:01:38.076Z,12.2
2017-05-22T04:02:18.604Z,12.2
2017-05-22T04:02:59.137Z,12.2
2017-05-22T04:03:39.651Z,12.2
2017-05-22T04:04:20.187Z,12.2
2017-05-22T04:05:00.747Z,12.2
2017-05-22T04:05:41.284Z,12.2
2017-05-22T04:06:21.804Z,12.2
2017-05-22T04:07:02.347Z,12.2
2017-05-22T04:07:42.879Z,12.2
2017-05-22T04:08:23.404Z,12.2
2017-05-22T04:09:03.978Z,12.2
2017-05-22T04:09:44.527Z,12.2
2017-05-22T04:10:25.054Z,12.2
2017-05-22T04:11:05.556Z,12.2
2017-05-22T04:11:46.092Z,12.2
2017-05-22T04:12:26.609Z,12.2
2017-05-22T04:13:07.142Z,12.2
2017-05-22T04:13:47.675Z,12.2
2017-05-22T04:14:28.189Z,12.2
2017-05-22T04:15:08.718Z,12.2
2017-05-22T04:15:49.276Z,12.2
2017-05-22T04:16:29.827Z,12.2
2017-05-22T04:17:10.336Z,12.2
2017-05-22T04:17:50.863Z,12.2
2017-05-22T04:18:31.446Z,12.2
2017-05-22T04:19:11.992Z,12.2
2017-05-22T04:19:52.514Z,12.2
2017-05-22T04:20:33.039Z,12.2
2017-05-22T04:21:13.608Z,12.2
2017-05-22T04:21:54.129Z,12.2
2017-05-22T04:22:34.660Z,12.2
2017-05-22T04:23:15.161Z,12.2
2017-05-22T04:23:55.680Z,12.2
2017-05-22T04:24:36.211Z,12.2
2017-05-22T04:25:16.749Z,12.2
2017-05-22T04:25:57.290Z,12.2
2017-05-22T04:26:37.851Z,12.2
2017-05-22T04:27:18.430Z,12.2
2017-05-22T04:27:58.976Z,12.2
2017-05-22T04:28:39.500Z,12.2
2017-05-22T04:29:20.109Z,12.2
2017-05-22T04:30:00.572Z,12.2
2017-05-22T04:30:41.100Z,12.2
2017-05-22T04:31:21.643Z,12.2
2017-05-22T04:32:02.185Z,12.2
2017-05-22T04:32:42.706Z,12.2
2017-05-22T04:33:23.265Z,12.2
2017-05-22T04:34:03.768Z,12.2
2017-05-22T04:34:44.326Z,12.2
2017-05-22T04:35:24.844Z,12.2
2017-05-22T04:36:05.383Z,12.2
2017-05-22T04:36:45.921Z,12.2
2017-05-22T04:37:26.487Z,12.2
2017-05-22T04:38:07.035Z,12.2
2017-05-22T04:38:47.553Z,12.2
2017-05-22T04:39:28.064Z,12.2
2017-05-22T04:40:08.599Z,12.2
2017-05-22T04:40:49.143Z,12.2
2017-05-22T04:41:29.660Z,12.2
2017-05-22T04:42:10.192Z,12.2
2017-05-22T04:42:50.693Z,12.2
2017-05-22T04:43:31.224Z,12.2
2017-05-22T04:44:11.754Z,12.2
2017-05-22T04:44:52.301Z,12.2
2017-05-22T04:45:32.838Z,12.2
2017-05-22T04:46:13.368Z,12.2
2017-05-22T04:46:53.917Z,12.2
2017-05-22T04:47:34.437Z,12.2
2017-05-22T04:48:14.965Z,12.2
2017-05-22T04:48:55.474Z,12.2
2017-05-22T04:49:35.991Z,12.2
2017-05-22T04:50:16.531Z,12.2
2017-05-22T04:50:57.048Z,12.2
2017-05-22T04:51:37.579Z,12.2
2017-05-22T04:52:18.098Z,12.2
2017-05-22T04:52:58.632Z,12.2
2017-05-22T04:53:39.114Z,12.2
2017-05-22T04:54:19.638Z,12.2
2017-05-22T04:55:00.139Z,12.2
2017-05-22T04:55:40.662Z,12.2
2017-05-22T04:56:21.210Z,12.2
2017-05-22T04:57:01.781Z,12.2
2017-05-22T04:57:42.266Z,12.2
2017-05-22T04:58:23.772Z,12.2
2017-05-22T04:59:04.285Z,12.2
2017-05-22T04:59:44.820Z,12.2
2017-05-22T05:00:25.335Z,12.2
2017-05-22T05:01:05.901Z,12.2
2017-05-22T05:01:46.408Z,12.2
2017-05-22T05:02:27.353Z,12.2
2017-05-22T05:03:07.871Z,12.2
2017-05-22T05:03:48.396Z,12.2
2017-05-22T05:04:28.899Z,12.2
2017-05-22T05:05:09.436Z,12.2
2017-05-22T05:05:49.925Z,12.2
2017-05-22T05:06:30.470Z,12.2
2017-05-22T05:07:10.999Z,12.2
2017-05-22T05:07:51.532Z,12.2
2017-05-22T05:08:32.062Z,12.2
2017-05-22T05:09:12.570Z,12.2
2017-05-22T05:09:53.096Z,12.2
2017-05-22T05:10:34.617Z,12.2
2017-05-22T05:11:15.122Z,12.2
2017-05-22T05:11:55.649Z,12.2
2017-05-22T05:12:37.193Z,12.2
2017-05-22T05:13:17.713Z,12.2
2017-05-22T05:13:58.239Z,12.2
2017-05-22T05:14:38.817Z,12.2
2017-05-22T05:15:19.357Z,12.2
2017-05-22T05:15:59.885Z,12.2
2017-05-22T05:16:40.423Z,12.2
2017-05-22T05:17:20.947Z,12.2
2017-05-22T05:18:01.513Z,12.2
2017-05-22T05:18:42.054Z,12.2
2017-05-22T05:19:22.568Z,12.2
2017-05-22T05:20:03.095Z,12.2
2017-05-22T05:20:43.622Z,12.2
2017-05-22T05:21:24.150Z,12.2
2017-05-22T05:22:04.669Z,12.2
2017-05-22T05:22:45.194Z,12.2
2017-05-22T05:23:25.714Z,12.2
2017-05-22T05:24:06.310Z,12.2
2017-05-22T05:24:46.827Z,12.2
2017-05-22T05:25:27.378Z,12.2
2017-05-22T05:26:07.917Z,12.2
2017-05-22T05:26:48.459Z,12.2
2017-05-22T05:27:28.967Z,12.2
2017-05-22T05:28:09.527Z,12.2
2017-05-22T05:28:51.074Z,12.2
2017-05-22T05:29:31.602Z,12.2
2017-05-22T05:30:12.149Z,12.2
2017-05-22T05:30:52.692Z,12.2
2017-05-22T05:31:33.253Z,12.2
2017-05-22T05:32:13.773Z,12.2
2017-05-22T05:32:54.291Z,12.2
2017-05-22T05:33:34.823Z,12.2
2017-05-22T05:34:15.364Z,12.2
2017-05-22T05:34:56.897Z,12.2
2017-05-22T05:35:37.422Z,12.2
2017-05-22T05:36:17.968Z,12.2
2017-05-22T05:36:58.503Z,12.2
2017-05-22T05:37:39.057Z,12.2
2017-05-22T05:38:19.580Z,12.2
2017-05-22T05:39:00.112Z,12.2
2017-05-22T05:39:40.615Z,12.2
2017-05-22T05:40:21.171Z,12.2
2017-05-22T05:41:01.725Z,12.2
2017-05-22T05:41:42.270Z,12.2
2017-05-22T05:42:22.868Z,12.2
2017-05-22T05:43:03.417Z,12.2
2017-05-22T05:43:43.975Z,12.2
2017-05-22T05:44:24.501Z,12.2
2017-05-22T05:45:05.010Z,12.2
2017-05-22T05:45:45.559Z,12.2
2017-05-22T05:46:26.057Z,12.2
2017-05-22T05:47:06.604Z,12.2
2017-05-22T05:47:47.192Z,12.2
2017-05-22T05:48:27.720Z,12.2
2017-05-22T05:49:08.293Z,12.2
2017-05-22T05:49:48.809Z,12.2
2017-05-22T05:50:29.325Z,12.2
2017-05-22T05:51:09.895Z,12.2
2017-05-22T05:51:50.468Z,12.2
2017-05-22T05:52:31.020Z,12.2
2017-05-22T05:53:11.537Z,12.2
2017-05-22T05:53:52.060Z,12.2
2017-05-22T05:54:32.592Z,12.2
2017-05-22T05:55:13.141Z,12.2
2017-05-22T05:55:53.681Z,12.2
2017-05-22T05:56:34.214Z,12.2
2017-05-22T05:57:14.725Z,12.2
2017-05-22T05:57:55.254Z,12.2
2017-05-22T05:58:36.197Z,12.2
2017-05-22T05:59:16.734Z,12.2
2017-05-22T05:59:58.291Z,12.2
2017-05-22T06:00:39.805Z,12.2
2017-05-22T06:01:20.351Z,12.2
2017-05-22T06:02:00.848Z,12.2
2017-05-22T06:02:42.353Z,12.2
2017-05-22T06:03:22.883Z,12.2
2017-05-22T06:04:03.454Z,12.2
2017-05-22T06:04:43.992Z,12.2
2017-05-22T06:05:24.568Z,12.2
2017-05-22T06:06:05.105Z,12.2
2017-05-22T06:06:45.669Z,12.2
2017-05-22T06:07:26.202Z,12.2
2017-05-22T06:08:06.745Z,12.2
2017-05-22T06:08:47.275Z,12.2
2017-05-22T06:10:45.336Z,13.72
2017-05-22T06:11:25.868Z,13.72
2017-05-22T06:12:06.389Z,13.72
2017-05-22T06:12:46.936Z,13.72
2017-05-22T06:13:27.472Z,13.72
2017-05-22T06:14:07.978Z,13.72
2017-05-22T06:14:48.501Z,13.72
2017-05-22T06:15:29.049Z,13.72
2017-05-22T06:16:09.564Z,13.72
2017-05-22T06:16:50.083Z,13.72
2017-05-22T06:17:30.639Z,13.72
2017-05-22T06:18:11.171Z,13.72
2017-05-22T06:18:51.708Z,13.72
2017-05-22T06:19:32.258Z,13.72
2017-05-22T06:20:12.816Z,13.72
2017-05-22T06:20:53.361Z,13.72
2017-05-22T06:21:33.880Z,13.72
2017-05-22T06:22:15.408Z,13.72
2017-05-22T06:22:55.922Z,13.72
2017-05-22T06:23:36.527Z,13.72
2017-05-22T06:24:17.061Z,13.72
2017-05-22T06:24:57.585Z,13.72
2017-05-22T06:25:38.131Z,13.72
2017-05-22T06:26:18.668Z,13.72
2017-05-22T06:26:59.204Z,13.72
2017-05-22T06:27:39.733Z,13.72
2017-05-22T06:28:20.341Z,13.72
2017-05-22T06:29:00.920Z,13.72
2017-05-22T06:29:42.526Z,13.72
2017-05-22T06:30:23.056Z,13.72
2017-05-22T06:31:04.588Z,13.72
2017-05-22T06:31:45.144Z,13.72
2017-05-22T06:32:25.718Z,13.72
2017-05-22T06:33:06.248Z,13.72
2017-05-22T06:33:46.801Z,13.72
2017-05-22T06:34:27.329Z,13.72
2017-05-22T06:35:07.857Z,13.72
2017-05-22T06:35:48.379Z,13.72
2017-05-22T06:36:29.925Z,13.72
2017-05-22T06:37:10.468Z,13.72
2017-05-22T06:37:50.993Z,13.72
2017-05-22T06:38:31.526Z,13.72
2017-05-22T06:39:12.062Z,13.72
2017-05-22T06:39:52.613Z,13.72
2017-05-22T06:40:33.153Z,13.72
2017-05-22T06:41:13.717Z,13.72
2017-05-22T06:41:54.201Z,13.72
2017-05-22T06:42:34.733Z,13.72
2017-05-22T06:43:15.275Z,13.72
2017-05-22T06:43:55.811Z,13.72
2017-05-22T06:44:36.326Z,13.72
2017-05-22T06:45:16.881Z,13.72
2017-05-22T06:45:57.425Z,13.72
2017-05-22T06:46:37.977Z,13.72
2017-05-22T06:47:18.505Z,13.72
2017-05-22T06:47:59.046Z,13.72
2017-05-22T06:48:39.556Z,13.72
2017-05-22T06:49:20.080Z,13.72
2017-05-22T06:50:00.611Z,13.72
2017-05-22T06:50:41.179Z,13.72
2017-05-22T06:51:21.729Z,13.72
2017-05-22T06:52:02.658Z,13.72
2017-05-22T06:52:43.194Z,13.72
2017-05-22T06:53:23.775Z,13.72
2017-05-22T06:54:04.236Z,13.72
2017-05-22T06:54:44.745Z,13.72
2017-05-22T06:55:25.264Z,13.72
2017-05-22T06:56:05.791Z,13.72
2017-05-22T06:56:46.344Z,13.72
2017-05-22T06:57:26.896Z,13.72
2017-05-22T06:58:07.417Z,13.72
2017-05-22T06:58:47.958Z,13.72
2017-05-22T06:59:28.478Z,13.72
2017-05-22T07:00:09.009Z,13.72
2017-05-22T07:00:49.537Z,13.72
2017-05-22T07:01:30.088Z,13.72
2017-05-22T07:02:10.630Z,13.72
2017-05-22T07:02:51.159Z,13.72
2017-05-22T07:03:31.694Z,13.72
2017-05-22T07:04:12.233Z,13.72
2017-05-22T07:04:52.756Z,13.72
2017-05-22T07:05:33.519Z,13.72
2017-05-22T07:06:14.033Z,13.72
2017-05-22T07:06:54.545Z,13.72
2017-05-22T07:07:35.055Z,13.72
2017-05-22T07:08:15.570Z,13.72
2017-05-22T07:08:56.082Z,13.72
2017-05-22T07:09:36.631Z,13.72
2017-05-22T07:10:17.171Z,13.72
2017-05-22T07:10:57.770Z,13.72
2017-05-22T07:11:38.303Z,13.72
2017-05-22T07:12:18.857Z,13.72
2017-05-22T07:12:59.368Z,13.72
2017-05-22T07:13:39.891Z,13.72
2017-05-22T07:14:20.433Z,13.72
2017-05-22T07:15:00.956Z,13.72
2017-05-22T07:15:41.462Z,13.72
2017-05-22T07:16:23.029Z,13.72
2017-05-22T07:17:03.546Z,13.72
2017-05-22T07:17:44.072Z,13.72
2017-05-22T07:18:24.588Z,13.72
2017-05-22T07:19:05.152Z,13.72
2017-05-22T07:19:45.703Z,13.72
2017-05-22T07:20:26.219Z,13.72
2017-05-22T07:21:06.747Z,13.72
2017-05-22T07:21:47.276Z,13.72
2017-05-22T07:22:27.823Z,13.72
2017-05-22T07:23:08.340Z,13.72
2017-05-22T07:23:48.857Z,13.72
2017-05-22T07:24:29.376Z,13.72
2017-05-22T07:25:09.880Z,13.72
2017-05-22T07:25:50.397Z,13.72
2017-05-22T07:26:30.898Z,13.72
2017-05-22T07:27:11.436Z,13.72
2017-05-22T07:27:51.958Z,13.72
2017-05-22T07:28:37.116Z,13.72
2017-05-22T07:29:17.620Z,13.72
2017-05-22T07:29:59.142Z,13.72
2017-05-22T07:30:39.679Z,13.72
2017-05-22T07:48:57.540Z,16.6
2017-05-22T07:49:38.059Z,16.6
2017-05-22T07:50:18.596Z,16.6
2017-05-22T07:50:59.160Z,16.6
2017-05-22T07:51:39.672Z,16.6
2017-05-22T07:52:20.188Z,16.6
2017-05-22T07:53:00.703Z,16.6
2017-05-22T07:53:41.342Z,16.6
2017-05-22T07:54:21.889Z,16.6
2017-05-22T07:55:02.415Z,16.6
2017-05-22T07:55:42.945Z,16.6
2017-05-22T07:56:23.492Z,16.6
2017-05-22T07:57:04.008Z,16.6
2017-05-22T07:57:44.596Z,16.6
2017-05-22T07:58:25.124Z,16.6
2017-05-22T07:59:05.627Z,16.6
2017-05-22T07:59:46.145Z,16.6
2017-05-22T08:00:26.675Z,16.6
2017-05-22T08:01:07.207Z,16.6
2017-05-22T08:01:47.744Z,16.6
2017-05-22T08:02:28.273Z,16.6
2017-05-22T08:03:08.792Z,17.01
2017-05-22T08:03:49.444Z,17.02
2017-05-22T08:04:30.026Z,17.01
2017-05-22T08:05:10.540Z,16.97
2017-05-22T08:05:51.066Z,17.09
2017-05-22T08:06:31.587Z,17.08
2017-05-22T08:07:13.453Z,17.11
2017-05-22T08:07:53.986Z,17.11
2017-05-22T08:08:35.507Z,17.12
2017-05-22T08:09:17.046Z,17.12
2017-05-22T08:09:57.573Z,17.11
2017-05-22T08:10:38.125Z,17.2
2017-05-22T08:11:18.633Z,17.2
2017-05-22T08:11:59.149Z,17.24
2017-05-22T08:12:39.700Z,17.27
2017-05-22T08:13:20.225Z,17.26
2017-05-22T08:14:00.759Z,17.34
2017-05-22T08:14:41.296Z,17.34
2017-05-22T08:15:21.828Z,17.38
2017-05-22T08:16:02.370Z,17.41
2017-05-22T08:16:42.942Z,17.38
2017-05-22T08:17:24.446Z,17.45
2017-05-22T08:18:06.958Z,17.36
2017-05-22T08:18:47.494Z,17.49
2017-05-22T08:19:28.021Z,17.45
2017-05-22T08:20:08.518Z,17.39
2017-05-22T08:20:49.046Z,17.52
2017-05-22T08:21:29.569Z,17.56
2017-05-22T08:22:16.009Z,17.57
2017-05-22T08:22:57.551Z,17.63
2017-05-22T08:23:38.105Z,17.57
2017-05-22T08:24:19.643Z,17.68
2017-05-22T08:25:10.766Z,67.16
2017-05-22T08:25:51.178Z,67.32
2017-05-22T08:26:31.713Z,67.49
2017-05-22T08:27:12.225Z,67.49
2017-05-22T08:27:52.770Z,67.64
2017-05-22T08:28:33.288Z,67.32
2017-05-22T08:29:13.836Z,67.16
2017-05-22T08:29:54.402Z,67.32
2017-05-22T08:30:34.929Z,67.49
2017-05-22T08:31:15.446Z,67.32
2017-05-22T08:31:55.997Z,67.16
2017-05-22T08:32:36.523Z,66.22
2017-05-22T08:33:17.078Z,66.06
2017-05-22T08:33:57.592Z,66.53
2017-05-22T08:34:38.111Z,66.22
2017-05-22T08:35:18.642Z,65.74
2017-05-22T08:35:59.201Z,65.89
2017-05-22T08:36:39.727Z,65.74
2017-05-22T08:37:20.285Z,66.38
2017-05-22T08:38:00.801Z,65.89
2017-05-22T08:38:41.308Z,65.42
2017-05-22T08:39:21.850Z,65.42
2017-05-22T08:40:02.383Z,64.95
2017-05-22T08:40:42.913Z,64.47
2017-05-22T08:41:23.536Z,64.95
2017-05-22T08:42:03.978Z,64
2017-05-22T08:42:44.499Z,63.21
2017-05-22T08:43:25.012Z,62.73
2017-05-22T08:44:05.555Z,63.68
2017-05-22T08:44:46.093Z,63.04
2017-05-22T08:45:26.614Z,62.26
2017-05-22T08:46:07.178Z,62.42
2017-05-22T08:46:47.685Z,61.94
2017-05-22T08:47:28.216Z,61.15
2017-05-22T08:48:08.753Z,61.46
2017-05-22T08:48:49.343Z,61.15
2017-05-22T08:49:29.903Z,60.99
2017-05-22T08:50:10.453Z,60.52
2017-05-22T08:50:50.989Z,60.52
2017-05-22T08:51:31.503Z,60.36
2017-05-22T08:52:12.054Z,60.52
2017-05-22T08:52:52.583Z,60.36
2017-05-22T08:53:33.121Z,59.41
2017-05-22T08:54:13.646Z,59.72
2017-05-22T08:54:54.159Z,60.04
2017-05-22T08:55:34.695Z,59.88
2017-05-22T08:56:15.256Z,59.57
2017-05-22T08:56:55.774Z,59.41
2017-05-22T08:57:36.318Z,59.09
2017-05-22T08:58:16.847Z,58.61
2017-05-22T08:58:57.414Z,57.51
2017-05-22T08:59:37.966Z,57.19
2017-05-22T09:00:18.517Z,57.03
2017-05-22T09:00:59.089Z,56.87
2017-05-22T09:01:39.632Z,57.35
2017-05-22T09:02:20.188Z,56.72
2017-05-22T09:03:00.703Z,56.09
2017-05-22T09:03:41.219Z,56.09
2017-05-22T09:04:21.783Z,55.76
2017-05-22T09:05:02.309Z,55.45
2017-05-22T09:05:42.826Z,55.13
2017-05-22T09:06:23.360Z,55.29
2017-05-22T09:07:03.875Z,54.18
2017-05-22T09:07:44.434Z,54.82
2017-05-22T09:08:24.965Z,54.5
2017-05-22T09:09:05.488Z,54.66
2017-05-22T09:09:46.022Z,54.82
2017-05-22T09:10:26.578Z,53.71
2017-05-22T09:11:07.088Z,53.55
2017-05-22T09:11:47.643Z,54.02
2017-05-22T09:12:28.165Z,53.07
2017-05-22T09:13:08.710Z,53.4
2017-05-22T09:13:49.228Z,52.91
2017-05-22T09:14:29.749Z,51.49
2017-05-22T09:15:10.264Z,52.13
2017-05-22T09:15:50.809Z,51.49
2017-05-22T09:16:31.320Z,50.06
2017-05-22T09:17:11.866Z,49.91
2017-05-22T09:17:52.509Z,49.75
2017-05-22T09:18:32.911Z,49.12
2017-05-22T09:19:13.451Z,48.8
2017-05-22T09:19:53.960Z,48.96
2017-05-22T09:20:34.481Z,48.48
2017-05-22T09:21:15.027Z,48.64
2017-05-22T09:21:55.568Z,48.64
2017-05-22T09:22:37.162Z,48.17
2017-05-22T09:23:17.720Z,47.37
2017-05-22T09:23:58.265Z,46.74
2017-05-22T09:24:38.791Z,45.95
2017-05-22T09:25:19.331Z,46.12
2017-05-22T09:25:59.889Z,45.48
2017-05-22T09:26:40.514Z,44.85
2017-05-22T09:27:21.023Z,44.21
2017-05-22T09:28:01.559Z,44.52
2017-05-22T09:28:42.088Z,43.27
2017-05-22T09:29:22.599Z,43.74
2017-05-22T09:30:03.106Z,42.94
2017-05-22T09:30:43.639Z,42.94
2017-05-22T09:31:24.184Z,42.47
2017-05-22T09:32:04.705Z,42.63
2017-05-22T09:32:45.247Z,42.31
2017-05-22T09:33:25.754Z,41.2
2017-05-22T09:34:06.288Z,41.05
2017-05-22T09:34:46.851Z,40.89
2017-05-22T09:35:27.448Z,40.57
2017-05-22T09:36:07.965Z,39.31
2017-05-22T09:36:48.498Z,38.99
2017-05-22T09:37:29.035Z,38.51
2017-05-22T09:38:09.580Z,38.99
2017-05-22T09:38:50.106Z,37.57
2017-05-22T09:39:30.650Z,37.57
2017-05-22T09:40:11.156Z,37.24
2017-05-22T09:40:51.684Z,36.77
2017-05-22T09:41:32.216Z,36.46
2017-05-22T09:42:12.729Z,36.77
2017-05-22T09:42:53.247Z,35.5
2017-05-22T09:43:33.775Z,36.14
2017-05-22T09:44:14.296Z,35.82
2017-05-22T09:44:54.803Z,34.87
2017-05-22T09:45:35.322Z,34.87
2017-05-22T09:46:15.829Z,34.39
2017-05-22T09:46:56.327Z,34.39
2017-05-22T09:47:36.852Z,33.29
2017-05-22T09:48:17.385Z,32.65
2017-05-22T09:48:57.932Z,32.65
2017-05-22T09:49:38.442Z,32.5
2017-05-22T09:50:19.071Z,32.03
2017-05-22T09:50:59.596Z,31.39
2017-05-22T09:51:40.129Z,31.07
2017-05-22T09:52:20.662Z,30.6
2017-05-22T09:53:01.172Z,29.65
2017-05-22T09:53:41.754Z,29.96
2017-05-22T09:54:22.286Z,30.28
2017-05-22T09:55:02.842Z,29.33
2017-05-22T09:55:43.374Z,29.02
2017-05-22T09:56:23.897Z,28.85
2017-05-22T09:57:04.468Z,28.85
2017-05-22T09:57:44.974Z,28.54
2017-05-22T09:58:25.528Z,28.22
2017-05-22T09:59:06.079Z,28.54
2017-05-22T09:59:46.608Z,28.07
2017-05-22T10:00:27.172Z,26.96
2017-05-22T10:01:07.686Z,27.59
2017-05-22T10:01:48.227Z,27.43
2017-05-22T10:02:28.771Z,27.11
2017-05-22T10:03:09.304Z,27.43
2017-05-22T10:03:49.825Z,27.59
2017-05-22T10:04:30.356Z,26.96
2017-05-22T10:05:12.874Z,26.64
2017-05-22T10:06:00.032Z,26.48
2017-05-22T10:06:42.571Z,26.33
2017-05-22T10:35:13.254Z,23.1
2017-05-22T10:35:53.771Z,23.1
2017-05-22T10:36:35.310Z,23.57
2017-05-22T10:37:15.818Z,24.04
2017-05-22T10:37:57.379Z,23.88
2017-05-22T10:38:37.898Z,24.04
2017-05-22T10:39:30.253Z,22.93
2017-05-22T10:40:11.782Z,22.93
2017-05-22T10:41:03.248Z,21.81
2017-05-22T10:41:43.806Z,21.81
2017-05-22T10:42:24.310Z,21.33
2017-05-22T10:43:04.834Z,21.65
2017-05-22T10:43:45.342Z,21.81
2017-05-22T10:44:25.886Z,21.98
2017-05-22T10:45:06.398Z,21.98
2017-05-22T10:45:52.560Z,21.98
2017-05-22T10:46:35.057Z,22.96
2017-05-22T10:47:20.547Z,21.78
2017-05-22T10:48:01.067Z,22.26
2017-05-22T10:48:41.621Z,22.26
2017-05-22T10:49:22.138Z,22.74
2017-05-22T10:50:02.738Z,22.42
2017-05-22T10:50:43.280Z,22.1
2017-05-22T10:51:23.812Z,21.62
2017-05-22T10:52:04.354Z,20.67
2017-05-22T10:52:44.863Z,20.51
2017-05-22T10:53:25.370Z,19.87
2017-05-22T10:54:05.942Z,20.34
2017-05-22T10:54:46.476Z,20.51
2017-05-22T10:55:27.056Z,20.34
2017-05-22T10:56:07.606Z,20.03
2017-05-22T10:56:48.133Z,21.15
2017-05-22T10:57:28.690Z,21.95
2017-05-22T10:58:09.251Z,21.62
2017-05-22T10:58:49.775Z,21.78
2017-05-22T10:59:30.334Z,20.83
2017-05-22T11:00:10.841Z,20.51
2017-05-22T11:00:51.408Z,20.51
2017-05-22T11:01:31.946Z,20.03
2017-05-22T11:02:13.481Z,20.34
2017-05-22T11:02:54.014Z,19.71
2017-05-22T11:03:34.539Z,19.55
2017-05-22T11:04:15.097Z,19.08
2017-05-22T11:04:55.626Z,18.91
2017-05-22T11:05:36.162Z,18.12
2017-05-22T11:06:16.720Z,18.28
2017-05-22T11:06:57.362Z,18.6
2017-05-22T11:07:37.807Z,18.44
2017-05-22T11:08:18.347Z,18.44
2017-05-22T11:08:58.876Z,18.44
2017-05-22T11:09:39.412Z,18.91
2017-05-22T11:10:19.928Z,18.91
2017-05-22T11:11:00.435Z,19.08
2017-05-22T11:11:42.958Z,18.91
2017-05-22T11:12:35.356Z,18.6
2017-05-22T11:13:15.899Z,18.6
2017-05-22T11:13:56.456Z,18.6
2017-05-22T11:14:39.008Z,18.6
2017-05-22T11:15:19.529Z,18.6
2017-05-22T11:16:05.745Z,18.6
2017-05-22T11:16:46.254Z,18.6
2017-05-22T11:17:26.790Z,18.6
2017-05-22T11:18:07.336Z,18.6
2017-05-22T11:18:47.866Z,18.6
2017-05-22T11:19:28.423Z,18.6
2017-05-22T11:20:08.964Z,18.6
2017-05-22T11:20:49.488Z,18.44
2017-05-22T11:21:30.030Z,18.12
2017-05-22T11:22:10.558Z,18.91
2017-05-22T11:22:51.095Z,18.91
2017-05-22T11:23:31.621Z,19.55
2017-05-22T11:24:12.148Z,20.19
2017-05-22T11:24:52.696Z,19.71
2017-05-22T11:25:33.225Z,19.71
2017-05-22T11:26:13.746Z,20.19
2017-05-22T11:26:54.279Z,20.19